Terminal Aerodrome Forecast
Issued by NWS Portland, OR

Home | Current Version | Previous Version | Text Only | Print | Product List | Glossary On
Versions: 1 2 3 4 5 6 7 8 9 10 11 12 13 14 15 16 17 18 19 20 21 22 23 24 25 26 27 28 29
000
FTUS46 KPQR 152336
TAFSLE
TAF
KSLE 152336Z 1600/1624 36007KT 6SM FU FEW015 BKN250
      TEMPO 1600/1604 2SM FU BKN015
     FM160600 00000KT P6SM FEW120 BKN250
     FM161700 26006KT P6SM FEW050 BKN250=

USA.gov is the U.S. government's official web portal to all federal, state and local government web resources and services.